sensor_id;sensor_type;location;lat;lon;timestamp;pressure;altitude;pressure_sealevel;temperature;humidity
11682;BME280;5897;42.640;23.310;2023-08-20T00:00:21;94167.31;;;22.53;64.88
11682;BME280;5897;42.640;23.310;2023-08-20T00:02:49;94161.28;;;22.43;64.83
11682;BME280;5897;42.640;23.310;2023-08-20T00:05:18;94158.53;;;22.49;65.04
11682;BME280;5897;42.640;23.310;2023-08-20T00:07:45;94158.53;;;22.49;65.02
11682;BME280;5897;42.640;23.310;2023-08-20T00:10:12;94165.31;;;22.53;65.15
11682;BME280;5897;42.640;23.310;2023-08-20T00:12:39;94159.84;;;22.70;64.02
11682;BME280;5897;42.640;23.310;2023-08-20T00:15:06;94150.84;;;22.69;63.29
11682;BME280;5897;42.640;23.310;2023-08-20T00:17:35;94147.31;;;22.74;62.29
11682;BME280;5897;42.640;23.310;2023-08-20T00:20:03;94152.06;;;22.79;61.94
11682;BME280;5897;42.640;23.310;2023-08-20T00:22:35;94152.09;;;22.90;61.59
11682;BME280;5897;42.640;23.310;2023-08-20T00:25:03;94160.38;;;22.96;61.30
11682;BME280;5897;42.640;23.310;2023-08-20T00:27:30;94162.38;;;22.95;61.03
11682;BME280;5897;42.640;23.310;2023-08-20T00:29:57;94160.13;;;23.05;60.77
11682;BME280;5897;42.640;23.310;2023-08-20T00:32:24;94159.13;;;23.08;59.94
11682;BME280;5897;42.640;23.310;2023-08-20T00:34:52;94172.94;;;23.19;60.04
11682;BME280;5897;42.640;23.310;2023-08-20T00:37:19;94166.91;;;23.09;60.64
11682;BME280;5897;42.640;23.310;2023-08-20T00:39:46;94160.16;;;23.21;59.84
11682;BME280;5897;42.640;23.310;2023-08-20T00:42:13;94155.66;;;23.24;60.30
11682;BME280;5897;42.640;23.310;2023-08-20T00:44:40;94159.13;;;23.08;60.72
11682;BME280;5897;42.640;23.310;2023-08-20T00:47:10;94157.63;;;23.07;61.60
11682;BME280;5897;42.640;23.310;2023-08-20T00:49:37;94165.16;;;23.01;61.73
11682;BME280;5897;42.640;23.310;2023-08-20T00:52:06;94159.84;;;22.70;62.50
11682;BME280;5897;42.640;23.310;2023-08-20T00:54:35;94150.31;;;22.65;62.89
11682;BME280;5897;42.640;23.310;2023-08-20T00:57:02;94155.84;;;22.82;62.26
11682;BME280;5897;42.640;23.310;2023-08-20T00:59:30;94159.38;;;22.93;61.89
11682;BME280;5897;42.640;23.310;2023-08-20T01:01:59;94152.09;;;23.01;61.61
11682;BME280;5897;42.640;23.310;2023-08-20T01:04:27;94155.63;;;23.02;61.46
11682;BME280;5897;42.640;23.310;2023-08-20T01:07:02;94156.34;;;23.13;60.95
11682;BME280;5897;42.640;23.310;2023-08-20T01:09:40;94159.91;;;23.25;60.74
11682;BME280;5897;42.640;23.310;2023-08-20T01:12:16;94152.38;;;23.20;60.68
11682;BME280;5897;42.640;23.310;2023-08-20T01:14:43;94154.34;;;23.08;60.79
11682;BME280;5897;42.640;23.310;2023-08-20T01:17:10;94157.13;;;23.19;60.40
11682;BME280;5897;42.640;23.310;2023-08-20T01:19:37;94157.16;;;23.25;60.62
11682;BME280;5897;42.640;23.310;2023-08-20T01:22:21;94158.63;;;23.20;60.64
11682;BME280;5897;42.640;23.310;2023-08-20T01:25:00;94152.88;;;23.35;60.37
11682;BME280;5897;42.640;23.310;2023-08-20T01:27:42;94148.59;;;23.01;61.59
11682;BME280;5897;42.640;23.310;2023-08-20T01:30:14;94155.63;;;23.13;61.20
11682;BME280;5897;42.640;23.310;2023-08-20T01:32:42;94151.63;;;23.19;60.79
11682;BME280;5897;42.640;23.310;2023-08-20T01:35:11;94151.13;;;23.21;61.05
11682;BME280;5897;42.640;23.310;2023-08-20T01:37:39;94146.59;;;23.29;61.36
11682;BME280;5897;42.640;23.310;2023-08-20T01:40:07;94143.34;;;23.30;61.60
11682;BME280;5897;42.640;23.310;2023-08-20T01:42:36;94137.56;;;23.34;61.63
11682;BME280;5897;42.640;23.310;2023-08-20T01:45:03;94141.13;;;23.18;62.14
11682;BME280;5897;42.640;23.310;2023-08-20T01:47:32;94138.31;;;23.01;62.84
11682;BME280;5897;42.640;23.310;2023-08-20T01:49:59;94141.31;;;22.87;63.47
11682;BME280;5897;42.640;23.310;2023-08-20T01:52:26;94146.84;;;22.92;63.13
11682;BME280;5897;42.640;23.310;2023-08-20T01:54:54;94147.09;;;23.05;63.12
11682;BME280;5897;42.640;23.310;2023-08-20T01:57:21;94151.59;;;23.03;63.29
11682;BME280;5897;42.640;23.310;2023-08-20T01:59:48;94147.06;;;22.89;63.99
11682;BME280;5897;42.640;23.310;2023-08-20T02:02:14;94141.06;;;22.90;63.83
11682;BME280;5897;42.640;23.310;2023-08-20T02:04:42;94136.06;;;22.89;64.32
11682;BME280;5897;42.640;23.310;2023-08-20T02:07:09;94141.34;;;22.92;63.69
11682;BME280;5897;42.640;23.310;2023-08-20T02:09:36;94133.81;;;22.98;63.39
11682;BME280;5897;42.640;23.310;2023-08-20T02:12:04;94128.31;;;22.98;63.25
11682;BME280;5897;42.640;23.310;2023-08-20T02:14:31;94128.56;;;22.95;63.22
11682;BME280;5897;42.640;23.310;2023-08-20T02:17:00;94123.53;;;22.88;63.58
11682;BME280;5897;42.640;23.310;2023-08-20T02:19:27;94124.78;;;22.87;63.71
11682;BME280;5897;42.640;23.310;2023-08-20T02:21:55;94129.06;;;22.82;64.01
11682;BME280;5897;42.640;23.310;2023-08-20T02:24:22;94131.03;;;22.82;64.48
11682;BME280;5897;42.640;23.310;2023-08-20T02:26:49;94124.78;;;22.87;64.20
11682;BME280;5897;42.640;23.310;2023-08-20T02:29:15;94129.53;;;22.81;64.22
11682;BME280;5897;42.640;23.310;2023-08-20T02:31:42;94125.28;;;22.74;64.54
11682;BME280;5897;42.640;23.310;2023-08-20T02:34:09;94131.03;;;22.71;64.65
11682;BME280;5897;42.640;23.310;2023-08-20T02:36:36;94128.78;;;22.69;64.43
11682;BME280;5897;42.640;23.310;2023-08-20T02:39:04;94128.78;;;22.64;64.32
11682;BME280;5897;42.640;23.310;2023-08-20T02:41:35;94124.50;;;22.57;64.84
11682;BME280;5897;42.640;23.310;2023-08-20T02:44:02;94121.75;;;22.57;64.74
11682;BME280;5897;42.640;23.310;2023-08-20T02:46:29;94132.28;;;22.53;64.85
11682;BME280;5897;42.640;23.310;2023-08-20T02:48:56;94134.25;;;22.47;65.38
11682;BME280;5897;42.640;23.310;2023-08-20T02:51:23;94134.25;;;22.53;65.72
11682;BME280;5897;42.640;23.310;2023-08-20T02:53:49;94139.78;;;22.58;65.49
11682;BME280;5897;42.640;23.310;2023-08-20T02:56:18;94138.50;;;22.54;65.12
11682;BME280;5897;42.640;23.310;2023-08-20T02:58:45;94146.03;;;22.59;65.22
11682;BME280;5897;42.640;23.310;2023-08-20T03:01:19;94159.56;;;22.57;65.07
11682;BME280;5897;42.640;23.310;2023-08-20T03:03:46;94156.53;;;22.55;65.35
11682;BME280;5897;42.640;23.310;2023-08-20T03:06:13;94153.03;;;22.49;65.77
11682;BME280;5897;42.640;23.310;2023-08-20T03:08:40;94151.03;;;22.49;65.62
11682;BME280;5897;42.640;23.310;2023-08-20T03:11:07;94160.53;;;22.54;65.44
11682;BME280;5897;42.640;23.310;2023-08-20T03:13:35;94154.28;;;22.48;65.68
11682;BME280;5897;42.640;23.310;2023-08-20T03:16:02;94153.97;;;22.40;65.88
11682;BME280;5897;42.640;23.310;2023-08-20T03:18:29;94159.16;;;22.16;67.12
11682;BME280;5897;42.640;23.310;2023-08-20T03:20:56;94154.16;;;22.20;67.27
11682;BME280;5897;42.640;23.310;2023-08-20T03:23:23;94152.19;;;22.26;67.03
11682;BME280;5897;42.640;23.310;2023-08-20T03:25:50;94149.19;;;22.30;67.40
11682;BME280;5897;42.640;23.310;2023-08-20T03:28:18;94141.19;;;22.26;67.72
11682;BME280;5897;42.640;23.310;2023-08-20T03:30:46;94142.91;;;22.24;66.96
11682;BME280;5897;42.640;23.310;2023-08-20T03:33:13;94142.91;;;22.18;67.75
11682;BME280;5897;42.640;23.310;2023-08-20T03:35:40;94143.91;;;22.21;68.02
11682;BME280;5897;42.640;23.310;2023-08-20T03:38:07;94144.91;;;22.23;68.21
11682;BME280;5897;42.640;23.310;2023-08-20T03:40:34;94139.41;;;22.23;68.13
11682;BME280;5897;42.640;23.310;2023-08-20T03:43:00;94147.44;;;22.27;68.36
11682;BME280;5897;42.640;23.310;2023-08-20T03:45:28;94147.94;;;22.31;68.61
11682;BME280;5897;42.640;23.310;2023-08-20T03:47:57;94141.69;;;22.30;69.13
11682;BME280;5897;42.640;23.310;2023-08-20T03:50:24;94141.41;;;22.23;69.58
11682;BME280;5897;42.640;23.310;2023-08-20T03:52:50;94139.84;;;22.00;70.12
11682;BME280;5897;42.640;23.310;2023-08-20T03:55:17;94137.81;;;21.95;70.05
11682;BME280;5897;42.640;23.310;2023-08-20T03:57:44;94131.09;;;22.01;70.16
11682;BME280;5897;42.640;23.310;2023-08-20T04:00:12;94138.28;;;21.88;70.88
11682;BME280;5897;42.640;23.310;2023-08-20T04:02:39;94135.50;;;21.82;71.17
11682;BME280;5897;42.640;23.310;2023-08-20T04:05:07;94130.22;;;21.79;70.92
11682;BME280;5897;42.640;23.310;2023-08-20T04:07:35;94140.25;;;21.82;70.89
11682;BME280;5897;42.640;23.310;2023-08-20T04:10:02;94144.50;;;21.83;71.54
11682;BME280;5897;42.640;23.310;2023-08-20T04:12:29;94142.22;;;21.76;71.98
11682;BME280;5897;42.640;23.310;2023-08-20T04:14:55;94143.19;;;21.67;72.77
11682;BME280;5897;42.640;23.310;2023-08-20T04:17:22;94139.19;;;21.68;72.51
11682;BME280;5897;42.640;23.310;2023-08-20T04:19:49;94146.44;;;21.71;73.08
11682;BME280;5897;42.640;23.310;2023-08-20T04:22:17;94137.22;;;21.80;73.17
11682;BME280;5897;42.640;23.310;2023-08-20T04:24:44;94139.56;;;21.98;72.88
11682;BME280;5897;42.640;23.310;2023-08-20T04:27:11;94146.13;;;22.11;72.78
11682;BME280;5897;42.640;23.310;2023-08-20T04:29:38;94143.91;;;22.21;72.11
11682;BME280;5897;42.640;23.310;2023-08-20T04:32:05;94140.16;;;22.29;71.22
11682;BME280;5897;42.640;23.310;2023-08-20T04:34:32;94148.97;;;22.39;71.32
11682;BME280;5897;42.640;23.310;2023-08-20T04:36:59;94141.69;;;22.36;70.90
11682;BME280;5897;42.640;23.310;2023-08-20T04:39:27;94147.44;;;22.27;71.07
11682;BME280;5897;42.640;23.310;2023-08-20T04:41:53;94139.69;;;22.31;70.91
11682;BME280;5897;42.640;23.310;2023-08-20T04:44:22;94144.22;;;22.39;70.96
11682;BME280;5897;42.640;23.310;2023-08-20T04:46:49;94139.78;;;22.47;70.96
11682;BME280;5897;42.640;23.310;2023-08-20T04:49:16;94141.03;;;22.52;71.53
11682;BME280;5897;42.640;23.310;2023-08-20T04:51:43;94138.06;;;22.61;71.39
11682;BME280;5897;42.640;23.310;2023-08-20T04:54:10;94128.00;;;22.58;72.01
11682;BME280;5897;42.640;23.310;2023-08-20T04:56:38;94134.81;;;22.68;72.82
11682;BME280;5897;42.640;23.310;2023-08-20T04:59:05;94141.81;;;22.74;72.94
11682;BME280;5897;42.640;23.310;2023-08-20T05:01:32;94147.31;;;22.85;73.87
11682;BME280;5897;42.640;23.310;2023-08-20T05:03:58;94139.31;;;22.93;74.76
11682;BME280;5897;42.640;23.310;2023-08-20T05:06:25;94140.81;;;22.94;70.84
11682;BME280;5897;42.640;23.310;2023-08-20T05:08:52;94148.34;;;23.04;69.80
11682;BME280;5897;42.640;23.310;2023-08-20T05:11:19;94141.59;;;23.05;68.65
11682;BME280;5897;42.640;23.310;2023-08-20T05:13:47;94143.06;;;23.12;68.26
11682;BME280;5897;42.640;23.310;2023-08-20T05:16:14;94152.63;;;23.33;68.25
11682;BME280;5897;42.640;23.310;2023-08-20T05:18:41;94148.63;;;23.39;67.17
11682;BME280;5897;42.640;23.310;2023-08-20T05:21:08;94150.84;;;23.46;65.54
11682;BME280;5897;42.640;23.310;2023-08-20T05:23:38;94162.63;;;23.58;65.98
11682;BME280;5897;42.640;23.310;2023-08-20T05:26:05;94158.84;;;23.72;65.91
11682;BME280;5897;42.640;23.310;2023-08-20T05:28:32;94160.56;;;23.86;65.94
11682;BME280;5897;42.640;23.310;2023-08-20T05:31:01;94160.31;;;24.00;66.13
11682;BME280;5897;42.640;23.310;2023-08-20T05:33:27;94161.50;;;24.10;65.87
11682;BME280;5897;42.640;23.310;2023-08-20T05:35:54;94170.00;;;24.23;65.30
11682;BME280;5897;42.640;23.310;2023-08-20T05:38:21;94163.50;;;24.21;63.29
11682;BME280;5897;42.640;23.310;2023-08-20T05:40:48;94167.97;;;24.24;63.54
11682;BME280;5897;42.640;23.310;2023-08-20T05:43:15;94164.19;;;24.32;63.78
11682;BME280;5897;42.640;23.310;2023-08-20T05:45:42;94169.66;;;24.43;63.58
11682;BME280;5897;42.640;23.310;2023-08-20T05:48:10;94174.38;;;24.54;63.23
11682;BME280;5897;42.640;23.310;2023-08-20T05:50:36;94168.09;;;24.59;62.69
11682;BME280;5897;42.640;23.310;2023-08-20T05:53:03;94176.03;;;24.73;61.48
11682;BME280;5897;42.640;23.310;2023-08-20T05:55:30;94162.22;;;24.79;61.86
11682;BME280;5897;42.640;23.310;2023-08-20T05:57:57;94161.88;;;24.88;62.42
11682;BME280;5897;42.640;23.310;2023-08-20T06:00:24;94177.94;;;24.95;62.91
11682;BME280;5897;42.640;23.310;2023-08-20T06:02:50;94172.06;;;25.09;62.71
11682;BME280;5897;42.640;23.310;2023-08-20T06:05:19;94165.91;;;25.22;62.32
11682;BME280;5897;42.640;23.310;2023-08-20T06:07:45;94164.69;;;25.17;62.02
11682;BME280;5897;42.640;23.310;2023-08-20T06:10:12;94157.19;;;25.12;62.71
11682;BME280;5897;42.640;23.310;2023-08-20T06:12:39;94164.63;;;25.28;61.59
11682;BME280;5897;42.640;23.310;2023-08-20T06:15:07;94166.81;;;25.41;61.64
11682;BME280;5897;42.640;23.310;2023-08-20T06:17:34;94176.81;;;25.44;60.62
11682;BME280;5897;42.640;23.310;2023-08-20T06:20:00;94176.53;;;25.47;60.90
11682;BME280;5897;42.640;23.310;2023-08-20T06:22:32;94179.63;;;25.68;60.75
11682;BME280;5897;42.640;23.310;2023-08-20T06:24:58;94181.38;;;25.71;61.61
11682;BME280;5897;42.640;23.310;2023-08-20T06:27:25;94179.41;;;25.90;60.17
11682;BME280;5897;42.640;23.310;2023-08-20T06:29:52;94180.00;;;26.07;60.73
11682;BME280;5897;42.640;23.310;2023-08-20T06:32:19;94182.31;;;26.27;55.90
11682;BME280;5897;42.640;23.310;2023-08-20T06:34:46;94179.53;;;26.27;57.94
11682;BME280;5897;42.640;23.310;2023-08-20T06:37:13;94183.69;;;26.39;56.55
11682;BME280;5897;42.640;23.310;2023-08-20T06:39:41;94177.84;;;26.42;53.65
11682;BME280;5897;42.640;23.310;2023-08-20T06:42:07;94190.00;;;26.58;53.50
11682;BME280;5897;42.640;23.310;2023-08-20T06:44:34;94186.94;;;26.80;52.32
11682;BME280;5897;42.640;23.310;2023-08-20T06:47:01;94188.00;;;26.77;52.45
11682;BME280;5897;42.640;23.310;2023-08-20T06:49:28;94191.53;;;26.77;52.15
11682;BME280;5897;42.640;23.310;2023-08-20T06:51:55;94189.97;;;26.82;50.29
11682;BME280;5897;42.640;23.310;2023-08-20T06:54:22;94179.53;;;26.88;49.23
11682;BME280;5897;42.640;23.310;2023-08-20T06:56:50;94191.66;;;27.03;50.96
11682;BME280;5897;42.640;23.310;2023-08-20T06:59:17;94185.28;;;27.08;49.48
11682;BME280;5897;42.640;23.310;2023-08-20T07:01:44;94185.16;;;27.01;48.59
11682;BME280;5897;42.640;23.310;2023-08-20T07:04:11;94190.47;;;27.17;47.57
11682;BME280;5897;42.640;23.310;2023-08-20T07:06:38;94188.91;;;27.22;47.76
11682;BME280;5897;42.640;23.310;2023-08-20T07:09:05;94186.34;;;27.24;47.77
11682;BME280;5897;42.640;23.310;2023-08-20T07:11:32;94192.56;;;27.30;47.46
11682;BME280;5897;42.640;23.310;2023-08-20T07:14:00;94197.31;;;27.48;47.12
11682;BME280;5897;42.640;23.310;2023-08-20T07:16:28;94194.63;;;27.42;48.35
11682;BME280;5897;42.640;23.310;2023-08-20T07:18:55;94191.88;;;27.42;47.38
11682;BME280;5897;42.640;23.310;2023-08-20T07:21:21;94191.69;;;27.53;47.95
11682;BME280;5897;42.640;23.310;2023-08-20T07:23:48;94199.13;;;27.45;49.88
11682;BME280;5897;42.640;23.310;2023-08-20T07:26:15;94193.69;;;27.53;49.46
11682;BME280;5897;42.640;23.310;2023-08-20T07:28:42;94196.94;;;27.70;47.68
11682;BME280;5897;42.640;23.310;2023-08-20T07:31:26;94171.78;;;27.81;46.67
11682;BME280;5897;42.640;23.310;2023-08-20T07:33:54;94195.84;;;27.91;46.59
11682;BME280;5897;42.640;23.310;2023-08-20T07:36:22;94182.44;;;27.77;46.57
11682;BME280;5897;42.640;23.310;2023-08-20T07:38:49;94205.66;;;27.61;45.98
11682;BME280;5897;42.640;23.310;2023-08-20T07:41:17;94195.47;;;27.37;47.54
11682;BME280;5897;42.640;23.310;2023-08-20T07:43:45;94200.28;;;27.50;46.59
11682;BME280;5897;42.640;23.310;2023-08-20T07:46:12;94200.75;;;27.54;46.89
11682;BME280;5897;42.640;23.310;2023-08-20T07:48:40;94208.03;;;27.57;47.40
11682;BME280;5897;42.640;23.310;2023-08-20T07:51:08;94201.00;;;27.69;46.29
11682;BME280;5897;42.640;23.310;2023-08-20T07:53:35;94194.00;;;27.81;46.96
11682;BME280;5897;42.640;23.310;2023-08-20T07:56:02;94188.72;;;28.09;47.97
11682;BME280;5897;42.640;23.310;2023-08-20T07:58:29;94189.78;;;28.19;46.26
11682;BME280;5897;42.640;23.310;2023-08-20T08:00:56;94191.59;;;28.29;44.28
11682;BME280;5897;42.640;23.310;2023-08-20T08:03:24;94193.88;;;28.44;44.98
11682;BME280;5897;42.640;23.310;2023-08-20T08:05:55;94191.28;;;28.46;43.32
11682;BME280;5897;42.640;23.310;2023-08-20T08:08:22;94191.63;;;28.55;41.80
11682;BME280;5897;42.640;23.310;2023-08-20T08:10:49;94195.78;;;28.49;41.97
11682;BME280;5897;42.640;23.310;2023-08-20T08:13:19;94189.13;;;28.52;42.05
11682;BME280;5897;42.640;23.310;2023-08-20T08:15:46;94199.09;;;28.47;42.40
11682;BME280;5897;42.640;23.310;2023-08-20T08:18:12;94188.28;;;28.70;42.34
11682;BME280;5897;42.640;23.310;2023-08-20T08:20:39;94198.28;;;28.86;41.73
11682;BME280;5897;42.640;23.310;2023-08-20T08:23:08;94198.50;;;28.88;41.25
11682;BME280;5897;42.640;23.310;2023-08-20T08:25:35;94196.00;;;29.10;38.84
11682;BME280;5897;42.640;23.310;2023-08-20T08:28:02;94189.47;;;29.21;40.65
11682;BME280;5897;42.640;23.310;2023-08-20T08:30:29;94189.16;;;29.45;38.20
11682;BME280;5897;42.640;23.310;2023-08-20T08:32:56;94186.13;;;29.56;36.70
11682;BME280;5897;42.640;23.310;2023-08-20T08:35:23;94192.03;;;29.73;36.40
11682;BME280;5897;42.640;23.310;2023-08-20T08:37:50;94179.41;;;29.72;36.44
11682;BME280;5897;42.640;23.310;2023-08-20T08:40:18;94185.63;;;29.65;36.48
11682;BME280;5897;42.640;23.310;2023-08-20T08:42:48;94190.31;;;29.70;37.31
11682;BME280;5897;42.640;23.310;2023-08-20T08:45:17;94189.56;;;29.90;35.97
11682;BME280;5897;42.640;23.310;2023-08-20T08:47:44;94185.47;;;30.11;36.35
11682;BME280;5897;42.640;23.310;2023-08-20T08:50:11;94182.28;;;30.35;36.36
11682;BME280;5897;42.640;23.310;2023-08-20T08:52:39;94183.63;;;30.42;34.77
11682;BME280;5897;42.640;23.310;2023-08-20T08:55:08;94183.22;;;30.38;34.38
11682;BME280;5897;42.640;23.310;2023-08-20T08:57:36;94188.94;;;30.60;33.92
11682;BME280;5897;42.640;23.310;2023-08-20T09:00:04;94197.34;;;30.68;32.96
11682;BME280;5897;42.640;23.310;2023-08-20T09:02:31;94192.28;;;30.59;32.82
11682;BME280;5897;42.640;23.310;2023-08-20T09:04:58;94189.03;;;30.75;33.01
11682;BME280;5897;42.640;23.310;2023-08-20T09:07:25;94194.72;;;31.05;33.37
11682;BME280;5897;42.640;23.310;2023-08-20T09:09:57;94187.69;;;31.12;32.56
11682;BME280;5897;42.640;23.310;2023-08-20T09:12:24;94193.38;;;31.42;32.03
11682;BME280;5897;42.640;23.310;2023-08-20T09:14:53;94187.44;;;31.53;30.17
11682;BME280;5897;42.640;23.310;2023-08-20T09:17:25;94184.13;;;31.69;32.05
11682;BME280;5897;42.640;23.310;2023-08-20T09:19:54;94177.81;;;31.84;31.32
11682;BME280;5897;42.640;23.310;2023-08-20T09:22:21;94185.47;;;32.06;30.79
11682;BME280;5897;42.640;23.310;2023-08-20T09:24:53;94183.38;;;31.99;31.19
11682;BME280;5897;42.640;23.310;2023-08-20T09:27:20;94185.47;;;32.06;30.77
11682;BME280;5897;42.640;23.310;2023-08-20T09:29:48;94200.94;;;32.14;31.18
11682;BME280;5897;42.640;23.310;2023-08-20T09:32:19;94189.91;;;32.16;31.60
11682;BME280;5897;42.640;23.310;2023-08-20T09:34:47;94187.31;;;31.88;30.61
11682;BME280;5897;42.640;23.310;2023-08-20T09:37:15;94193.13;;;32.28;28.26
11682;BME280;5897;42.640;23.310;2023-08-20T09:39:42;94183.97;;;32.35;29.32
11682;BME280;5897;42.640;23.310;2023-08-20T09:42:10;94178.16;;;32.40;28.97
11682;BME280;5897;42.640;23.310;2023-08-20T09:44:38;94174.19;;;32.66;28.85
11682;BME280;5897;42.640;23.310;2023-08-20T09:47:06;94174.31;;;32.75;27.51
11682;BME280;5897;42.640;23.310;2023-08-20T09:49:38;94172.09;;;32.81;26.99
11682;BME280;5897;42.640;23.310;2023-08-20T09:52:06;94165.19;;;33.22;26.32
11682;BME280;5897;42.640;23.310;2023-08-20T09:54:45;94177.72;;;33.21;28.38
11682;BME280;5897;42.640;23.310;2023-08-20T09:57:22;94168.25;;;33.09;26.57
11682;BME280;5897;42.640;23.310;2023-08-20T09:59:50;94165.63;;;33.11;26.37
11682;BME280;5897;42.640;23.310;2023-08-20T10:02:19;94166.97;;;33.02;26.94
11682;BME280;5897;42.640;23.310;2023-08-20T10:04:47;94166.63;;;32.98;26.18
11682;BME280;5897;42.640;23.310;2023-08-20T10:07:15;94170.28;;;33.16;27.36
11682;BME280;5897;42.640;23.310;2023-08-20T10:09:43;94149.88;;;33.23;25.43
11682;BME280;5897;42.640;23.310;2023-08-20T10:12:12;94165.19;;;33.29;25.21
11682;BME280;5897;42.640;23.310;2023-08-20T10:14:38;94177.56;;;33.51;25.43
11682;BME280;5897;42.640;23.310;2023-08-20T10:17:07;94154.78;;;33.47;24.82
11682;BME280;5897;42.640;23.310;2023-08-20T10:19:33;94165.00;;;33.59;25.43
11682;BME280;5897;42.640;23.310;2023-08-20T10:22:03;94180.81;;;33.40;25.96
11682;BME280;5897;42.640;23.310;2023-08-20T10:24:40;94162.44;;;33.54;26.51
11682;BME280;5897;42.640;23.310;2023-08-20T10:27:08;94169.41;;;33.70;25.95
11682;BME280;5897;42.640;23.310;2023-08-20T10:29:36;94166.03;;;33.71;25.64
11682;BME280;5897;42.640;23.310;2023-08-20T10:32:05;94161.00;;;33.70;25.03
11682;BME280;5897;42.640;23.310;2023-08-20T10:34:32;94159.50;;;33.69;25.28
11682;BME280;5897;42.640;23.310;2023-08-20T10:37:02;94160.63;;;33.98;25.37
11682;BME280;5897;42.640;23.310;2023-08-20T10:39:30;94156.47;;;34.23;25.04
11682;BME280;5897;42.640;23.310;2023-08-20T10:42:21;94155.53;;;34.45;24.79
11682;BME280;5897;42.640;23.310;2023-08-20T10:44:58;94155.25;;;34.75;25.16
11682;BME280;5897;42.640;23.310;2023-08-20T10:47:26;94148.75;;;34.99;25.01
11682;BME280;5897;42.640;23.310;2023-08-20T10:50:02;94144.00;;;34.58;24.30
11682;BME280;5897;42.640;23.310;2023-08-20T10:52:30;94139.28;;;34.78;25.51
11682;BME280;5897;42.640;23.310;2023-08-20T10:54:57;94142.31;;;35.06;25.19
11682;BME280;5897;42.640;23.310;2023-08-20T10:57:33;94142.88;;;35.05;23.97
11682;BME280;5897;42.640;23.310;2023-08-20T11:00:05;94142.91;;;35.31;25.70
11682;BME280;5897;42.640;23.310;2023-08-20T11:02:37;94149.88;;;35.30;24.92
11682;BME280;5897;42.640;23.310;2023-08-20T11:05:16;94139.97;;;35.65;24.19
11682;BME280;5897;42.640;23.310;2023-08-20T11:07:46;94137.44;;;35.60;25.00
11682;BME280;5897;42.640;23.310;2023-08-20T11:10:15;94108.69;;;35.52;25.63
11682;BME280;5897;42.640;23.310;2023-08-20T11:12:42;94140.69;;;35.83;24.92
11682;BME280;5897;42.640;23.310;2023-08-20T11:15:10;94125.50;;;36.05;25.03
11682;BME280;5897;42.640;23.310;2023-08-20T11:17:40;94123.97;;;36.30;25.10
11682;BME280;5897;42.640;23.310;2023-08-20T11:20:08;94120.00;;;36.52;24.59
11682;BME280;5897;42.640;23.310;2023-08-20T11:22:36;94120.59;;;36.70;23.80
11682;BME280;5897;42.640;23.310;2023-08-20T11:25:09;94122.06;;;36.52;24.03
11682;BME280;5897;42.640;23.310;2023-08-20T11:27:36;94126.78;;;36.49;23.45
11682;BME280;5897;42.640;23.310;2023-08-20T11:30:07;94128.72;;;36.56;23.74
11682;BME280;5897;42.640;23.310;2023-08-20T11:32:35;94118.47;;;36.32;24.17
11682;BME280;5897;42.640;23.310;2023-08-20T11:35:02;94124.31;;;36.72;24.24
11682;BME280;5897;42.640;23.310;2023-08-20T11:37:29;94118.06;;;36.93;23.80
11682;BME280;5897;42.640;23.310;2023-08-20T11:39:56;94105.63;;;36.86;23.44
11682;BME280;5897;42.640;23.310;2023-08-20T11:42:25;94118.78;;;37.03;23.36
11682;BME280;5897;42.640;23.310;2023-08-20T11:44:55;94115.22;;;37.31;23.39
11682;BME280;5897;42.640;23.310;2023-08-20T11:47:22;94116.53;;;37.39;22.22
11682;BME280;5897;42.640;23.310;2023-08-20T11:50:01;94102.84;;;37.45;22.90
11682;BME280;5897;42.640;23.310;2023-08-20T11:52:30;94105.41;;;37.32;23.55
11682;BME280;5897;42.640;23.310;2023-08-20T11:54:57;94113.38;;;37.45;23.36
11682;BME280;5897;42.640;23.310;2023-08-20T11:57:26;94106.75;;;37.31;23.05
11682;BME280;5897;42.640;23.310;2023-08-20T11:59:52;94106.88;;;37.33;23.19
11682;BME280;5897;42.640;23.310;2023-08-20T12:02:25;94103.94;;;37.31;23.23
11682;BME280;5897;42.640;23.310;2023-08-20T12:04:55;94099.56;;;37.49;23.36
11682;BME280;5897;42.640;23.310;2023-08-20T12:07:25;94097.44;;;37.68;22.95
11682;BME280;5897;42.640;23.310;2023-08-20T12:09:52;94100.88;;;37.97;23.13
11682;BME280;5897;42.640;23.310;2023-08-20T12:12:19;94089.91;;;38.01;23.23
11682;BME280;5897;42.640;23.310;2023-08-20T12:14:48;94072.63;;;38.07;23.60
11682;BME280;5897;42.640;23.310;2023-08-20T12:17:17;94074.19;;;37.89;22.37
11682;BME280;5897;42.640;23.310;2023-08-20T12:19:44;94069.63;;;37.84;22.59
11682;BME280;5897;42.640;23.310;2023-08-20T12:22:11;94085.00;;;37.62;22.86
11682;BME280;5897;42.640;23.310;2023-08-20T12:24:38;94083.78;;;37.74;22.89
11682;BME280;5897;42.640;23.310;2023-08-20T12:27:04;94077.84;;;38.01;22.35
11682;BME280;5897;42.640;23.310;2023-08-20T12:29:31;94083.53;;;37.61;23.17
11682;BME280;5897;42.640;23.310;2023-08-20T12:31:59;94071.00;;;37.73;21.66
11682;BME280;5897;42.640;23.310;2023-08-20T12:34:29;94076.13;;;38.17;22.92
11682;BME280;5897;42.640;23.310;2023-08-20T12:36:56;94076.41;;;38.42;22.44
11682;BME280;5897;42.640;23.310;2023-08-20T12:39:23;94068.88;;;38.56;22.43
11682;BME280;5897;42.640;23.310;2023-08-20T12:41:50;94068.47;;;38.71;22.60
11682;BME280;5897;42.640;23.310;2023-08-20T12:44:17;94062.78;;;38.92;22.66
11682;BME280;5897;42.640;23.310;2023-08-20T12:46:43;94065.66;;;38.71;21.87
11682;BME280;5897;42.640;23.310;2023-08-20T12:49:11;94068.59;;;38.73;22.44
11682;BME280;5897;42.640;23.310;2023-08-20T12:51:38;94064.81;;;38.80;21.81
11682;BME280;5897;42.640;23.310;2023-08-20T12:54:05;94069.41;;;38.64;21.90
11682;BME280;5897;42.640;23.310;2023-08-20T12:56:32;94061.38;;;38.49;21.87
11682;BME280;5897;42.640;23.310;2023-08-20T12:58:59;94069.16;;;38.60;21.24
11682;BME280;5897;42.640;23.310;2023-08-20T13:01:26;94057.63;;;38.67;21.05
11682;BME280;5897;42.640;23.310;2023-08-20T13:03:53;94062.25;;;38.51;22.75